sensor_id;sensor_type;location;lat;lon;timestamp;pressure;altitude;pressure_sealevel;temperature;humidity
52651;BME280;38537;47.226;39.702;2023-05-12T00:00:50;101047.53;;;10.51;64.15
52651;BME280;38537;47.226;39.702;2023-05-12T00:03:19;101037.53;;;10.40;63.86
52651;BME280;38537;47.226;39.702;2023-05-12T00:05:49;101064.88;;;10.43;63.21
52651;BME280;38537;47.226;39.702;2023-05-12T00:08:18;100975.09;;;9.91;63.43
52651;BME280;38537;47.226;39.702;2023-05-12T00:10:45;101001.34;;;9.85;63.48
52651;BME280;38537;47.226;39.702;2023-05-12T00:13:13;101100.09;;;10.39;63.50
52651;BME280;38537;47.226;39.702;2023-05-12T00:15:41;101067.22;;;10.25;63.79
52651;BME280;38537;47.226;39.702;2023-05-12T00:18:08;101072.34;;;10.08;63.66
52651;BME280;38537;47.226;39.702;2023-05-12T00:20:37;101031.75;;;9.82;63.62
52651;BME280;38537;47.226;39.702;2023-05-12T00:23:04;101043.47;;;9.79;63.82
52651;BME280;38537;47.226;39.702;2023-05-12T00:25:32;101010.94;;;9.59;63.67
52651;BME280;38537;47.226;39.702;2023-05-12T00:28:00;101080.19;;;9.96;63.84
52651;BME280;38537;47.226;39.702;2023-05-12T00:30:27;101065.78;;;9.79;64.12
52651;BME280;38537;47.226;39.702;2023-05-12T00:32:55;101066.91;;;9.78;64.17
52651;BME280;38537;47.226;39.702;2023-05-12T00:35:24;101026.56;;;9.60;64.03
52651;BME280;38537;47.226;39.702;2023-05-12T00:37:52;101045.50;;;9.63;63.80
52651;BME280;38537;47.226;39.702;2023-05-12T00:40:20;101030.25;;;9.45;63.86
52651;BME280;38537;47.226;39.702;2023-05-12T00:42:48;101025.84;;;9.29;64.15
52651;BME280;38537;47.226;39.702;2023-05-12T00:45:16;101049.78;;;9.35;63.93
52651;BME280;38537;47.226;39.702;2023-05-12T00:47:44;100987.22;;;8.92;63.99
52651;BME280;38537;47.226;39.702;2023-05-12T00:50:13;101005.31;;;9.00;63.41
52651;BME280;38537;47.226;39.702;2023-05-12T00:52:41;101064.88;;;9.29;63.80
52651;BME280;38537;47.226;39.702;2023-05-12T00:55:08;100992.53;;;8.83;63.88
52651;BME280;38537;47.226;39.702;2023-05-12T00:57:37;101030.09;;;9.06;63.93
52651;BME280;38537;47.226;39.702;2023-05-12T01:00:05;101066.56;;;9.20;64.27
52651;BME280;38537;47.226;39.702;2023-05-12T01:02:35;101032.06;;;9.01;64.50
52651;BME280;38537;47.226;39.702;2023-05-12T01:05:03;100960.00;;;8.48;64.61
52651;BME280;38537;47.226;39.702;2023-05-12T01:07:32;101013.72;;;8.79;64.50
52651;BME280;38537;47.226;39.702;2023-05-12T01:10:17;101076.88;;;9.19;64.79
52651;BME280;38537;47.226;39.702;2023-05-12T01:12:46;100948.06;;;8.33;64.61
52651;BME280;38537;47.226;39.702;2023-05-12T01:15:16;100998.44;;;8.41;64.92
52651;BME280;38537;47.226;39.702;2023-05-12T01:17:54;100993.66;;;8.32;64.57
52651;BME280;38537;47.226;39.702;2023-05-12T01:20:25;101042.69;;;8.58;64.45
52651;BME280;38537;47.226;39.702;2023-05-12T01:22:57;101068.28;;;8.70;64.86
52651;BME280;38537;47.226;39.702;2023-05-12T01:25:30;101051.31;;;8.56;64.63
52651;BME280;38537;47.226;39.702;2023-05-12T01:28:01;100984.75;;;8.09;65.11
52651;BME280;38537;47.226;39.702;2023-05-12T01:30:31;101020.34;;;8.27;65.76
52651;BME280;38537;47.226;39.702;2023-05-12T01:32:58;101097.50;;;8.73;65.22
52651;BME280;38537;47.226;39.702;2023-05-12T01:35:27;101008.13;;;8.13;65.16
52651;BME280;38537;47.226;39.702;2023-05-12T01:37:59;101009.50;;;8.11;64.82
52651;BME280;38537;47.226;39.702;2023-05-12T01:40:27;101052.69;;;8.34;64.49
52651;BME280;38537;47.226;39.702;2023-05-12T01:42:55;101082.47;;;8.48;64.59
52651;BME280;38537;47.226;39.702;2023-05-12T01:45:27;101059.59;;;8.26;64.32
52651;BME280;38537;47.226;39.702;2023-05-12T01:47:55;101000.31;;;7.95;64.24
52651;BME280;38537;47.226;39.702;2023-05-12T01:50:23;101128.41;;;8.71;64.31
52651;BME280;38537;47.226;39.702;2023-05-12T01:52:51;101075.78;;;8.39;64.31
52651;BME280;38537;47.226;39.702;2023-05-12T01:55:19;101016.44;;;7.98;64.28
52651;BME280;38537;47.226;39.702;2023-05-12T01:57:57;101041.50;;;8.18;64.03
52651;BME280;38537;47.226;39.702;2023-05-12T02:00:24;101106.69;;;8.53;64.24
52651;BME280;38537;47.226;39.702;2023-05-12T02:03:00;101019.22;;;8.03;64.35
52651;BME280;38537;47.226;39.702;2023-05-12T02:05:28;101044.81;;;8.00;64.34
52651;BME280;38537;47.226;39.702;2023-05-12T02:07:55;101017.22;;;7.83;64.02
52651;BME280;38537;47.226;39.702;2023-05-12T02:10:23;101048.16;;;7.97;64.39
52651;BME280;38537;47.226;39.702;2023-05-12T02:12:51;101097.44;;;8.27;64.28
52651;BME280;38537;47.226;39.702;2023-05-12T02:15:18;101026.09;;;7.80;64.59
52651;BME280;38537;47.226;39.702;2023-05-12T02:17:47;101038.38;;;7.89;64.59
52651;BME280;38537;47.226;39.702;2023-05-12T02:20:17;101075.16;;;8.12;64.42
52651;BME280;38537;47.226;39.702;2023-05-12T02:22:45;101072.63;;;8.10;64.63
52651;BME280;38537;47.226;39.702;2023-05-12T02:25:13;101074.28;;;8.06;64.52
52651;BME280;38537;47.226;39.702;2023-05-12T02:27:40;101102.16;;;8.32;64.71
52651;BME280;38537;47.226;39.702;2023-05-12T02:30:10;101063.16;;;7.96;64.55
52651;BME280;38537;47.226;39.702;2023-05-12T02:32:37;101092.16;;;8.20;64.22
52651;BME280;38537;47.226;39.702;2023-05-12T02:35:06;101168.50;;;8.70;64.49
52651;BME280;38537;47.226;39.702;2023-05-12T02:37:36;101063.78;;;8.18;64.22
52651;BME280;38537;47.226;39.702;2023-05-12T02:40:06;101120.88;;;8.46;64.24
52651;BME280;38537;47.226;39.702;2023-05-12T02:42:33;101162.13;;;8.80;64.06
52651;BME280;38537;47.226;39.702;2023-05-12T02:45:02;101013.09;;;7.96;64.11
52651;BME280;38537;47.226;39.702;2023-05-12T02:47:34;101058.47;;;8.27;64.08
52651;BME280;38537;47.226;39.702;2023-05-12T02:50:04;101103.91;;;8.53;63.71
52651;BME280;38537;47.226;39.702;2023-05-12T02:52:32;101092.75;;;8.48;63.41
52651;BME280;38537;47.226;39.702;2023-05-12T02:54:59;101077.75;;;8.39;63.01
52651;BME280;38537;47.226;39.702;2023-05-12T02:57:30;101087.19;;;8.48;63.39
52651;BME280;38537;47.226;39.702;2023-05-12T03:00:01;101111.72;;;8.71;62.98
52651;BME280;38537;47.226;39.702;2023-05-12T03:02:35;101054.91;;;8.37;62.53
52651;BME280;38537;47.226;39.702;2023-05-12T03:05:06;101014.25;;;8.20;62.86
52651;BME280;38537;47.226;39.702;2023-05-12T03:07:35;101146.81;;;8.98;62.55
52651;BME280;38537;47.226;39.702;2023-05-12T03:10:03;101076.09;;;8.58;62.51
52651;BME280;38537;47.226;39.702;2023-05-12T03:12:30;101132.88;;;9.03;62.58
52651;BME280;38537;47.226;39.702;2023-05-12T03:14:59;101135.41;;;8.99;62.74
52651;BME280;38537;47.226;39.702;2023-05-12T03:17:33;101119.25;;;9.01;63.22
52651;BME280;38537;47.226;39.702;2023-05-12T03:20:01;101103.94;;;8.83;62.82
52651;BME280;38537;47.226;39.702;2023-05-12T03:22:33;101193.03;;;9.34;62.82
52651;BME280;38537;47.226;39.702;2023-05-12T03:25:05;101082.47;;;8.69;63.08
52651;BME280;38537;47.226;39.702;2023-05-12T03:27:33;101058.81;;;8.56;63.09
52651;BME280;38537;47.226;39.702;2023-05-12T03:30:01;101139.28;;;9.13;63.37
52651;BME280;38537;47.226;39.702;2023-05-12T03:32:34;101112.81;;;8.96;63.10
52651;BME280;38537;47.226;39.702;2023-05-12T03:35:08;101061.03;;;8.69;63.08
52651;BME280;38537;47.226;39.702;2023-05-12T03:37:36;101115.91;;;9.09;62.72
52651;BME280;38537;47.226;39.702;2023-05-12T03:40:05;101125.91;;;9.25;62.82
52651;BME280;38537;47.226;39.702;2023-05-12T03:42:33;101037.09;;;8.78;62.79
52651;BME280;38537;47.226;39.702;2023-05-12T03:45:00;101162.34;;;9.54;62.73
52651;BME280;38537;47.226;39.702;2023-05-12T03:47:30;101139.25;;;9.49;62.64
52651;BME280;38537;47.226;39.702;2023-05-12T03:49:58;101140.31;;;9.58;62.61
52651;BME280;38537;47.226;39.702;2023-05-12T03:52:27;101123.91;;;9.51;63.03
52651;BME280;38537;47.226;39.702;2023-05-12T03:54:54;101119.41;;;9.55;62.80
52651;BME280;38537;47.226;39.702;2023-05-12T03:57:22;101136.13;;;9.71;62.94
52651;BME280;38537;47.226;39.702;2023-05-12T03:59:50;101166.66;;;10.01;62.60
52651;BME280;38537;47.226;39.702;2023-05-12T04:02:18;101205.09;;;10.29;62.39
52651;BME280;38537;47.226;39.702;2023-05-12T04:04:45;101122.66;;;9.83;62.96
52651;BME280;38537;47.226;39.702;2023-05-12T04:07:14;101139.06;;;10.00;62.62
52651;BME280;38537;47.226;39.702;2023-05-12T04:09:41;101191.09;;;10.40;62.82
52651;BME280;38537;47.226;39.702;2023-05-12T04:12:10;101131.75;;;10.14;62.84
52651;BME280;38537;47.226;39.702;2023-05-12T04:14:37;101192.16;;;10.54;62.61
52651;BME280;38537;47.226;39.702;2023-05-12T04:17:12;101113.03;;;10.19;62.57
52651;BME280;38537;47.226;39.702;2023-05-12T04:19:39;101157.53;;;10.50;62.20
52651;BME280;38537;47.226;39.702;2023-05-12T04:22:22;101140.25;;;10.43;61.68
52651;BME280;38537;47.226;39.702;2023-05-12T04:24:52;101204.59;;;11.11;61.88
52651;BME280;38537;47.226;39.702;2023-05-12T04:27:19;101086.66;;;10.41;61.67
52651;BME280;38537;47.226;39.702;2023-05-12T04:29:47;101131.91;;;10.82;61.45
52651;BME280;38537;47.226;39.702;2023-05-12T04:32:15;101069.84;;;10.51;61.52
52651;BME280;38537;47.226;39.702;2023-05-12T04:34:43;101191.78;;;11.39;61.49
52651;BME280;38537;47.226;39.702;2023-05-12T04:37:14;101117.72;;;11.07;60.89
52651;BME280;38537;47.226;39.702;2023-05-12T04:39:42;101123.22;;;11.17;60.96
52651;BME280;38537;47.226;39.702;2023-05-12T04:42:09;101106.44;;;11.17;60.39
52651;BME280;38537;47.226;39.702;2023-05-12T04:44:37;101061.94;;;10.97;60.00
52651;BME280;38537;47.226;39.702;2023-05-12T04:47:05;101042.66;;;10.95;59.43
52651;BME280;38537;47.226;39.702;2023-05-12T04:49:34;101113.91;;;11.51;59.30
52651;BME280;38537;47.226;39.702;2023-05-12T04:52:02;101060.41;;;11.33;58.75
52651;BME280;38537;47.226;39.702;2023-05-12T04:54:31;101054.78;;;11.39;58.85
52651;BME280;38537;47.226;39.702;2023-05-12T04:57:00;101063.47;;;11.61;58.60
52651;BME280;38537;47.226;39.702;2023-05-12T04:59:27;101165.69;;;12.25;57.86
52651;BME280;38537;47.226;39.702;2023-05-12T05:01:58;101097.00;;;11.90;56.87
52651;BME280;38537;47.226;39.702;2023-05-12T05:04:26;101101.84;;;12.03;57.65
52651;BME280;38537;47.226;39.702;2023-05-12T05:06:54;101113.69;;;12.19;56.13
52651;BME280;38537;47.226;39.702;2023-05-12T05:09:25;101113.91;;;12.22;55.46
52651;BME280;38537;47.226;39.702;2023-05-12T05:11:59;101071.06;;;12.03;55.66
52651;BME280;38537;47.226;39.702;2023-05-12T05:14:41;101154.22;;;12.64;56.14
52651;BME280;38537;47.226;39.702;2023-05-12T05:17:09;101120.22;;;12.52;56.50
52651;BME280;38537;47.226;39.702;2023-05-12T05:19:39;101126.72;;;12.66;56.34
52651;BME280;38537;47.226;39.702;2023-05-12T05:22:28;101193.28;;;13.12;55.60
52651;BME280;38537;47.226;39.702;2023-05-12T05:24:58;101122.47;;;12.68;54.68
52651;BME280;38537;47.226;39.702;2023-05-12T05:27:30;101121.13;;;12.66;54.38
52651;BME280;38537;47.226;39.702;2023-05-12T05:29:58;101124.53;;;12.63;53.32
52651;BME280;38537;47.226;39.702;2023-05-12T05:32:29;101120.50;;;12.69;53.23
52651;BME280;38537;47.226;39.702;2023-05-12T05:34:56;101182.31;;;13.15;53.72
52651;BME280;38537;47.226;39.702;2023-05-12T05:37:25;101123.06;;;12.84;53.92
52651;BME280;38537;47.226;39.702;2023-05-12T05:39:55;101189.03;;;13.33;54.24
52651;BME280;38537;47.226;39.702;2023-05-12T05:42:22;101142.28;;;13.10;54.22
52651;BME280;38537;47.226;39.702;2023-05-12T05:44:52;101123.03;;;13.03;54.26
52651;BME280;38537;47.226;39.702;2023-05-12T05:47:19;101195.41;;;13.52;53.91
52651;BME280;38537;47.226;39.702;2023-05-12T05:49:50;101195.25;;;13.62;54.09
52651;BME280;38537;47.226;39.702;2023-05-12T05:52:18;101193.59;;;13.61;53.42
52651;BME280;38537;47.226;39.702;2023-05-12T05:54:45;101138.53;;;13.33;53.64
52651;BME280;38537;47.226;39.702;2023-05-12T05:57:19;101107.31;;;13.21;52.92
52651;BME280;38537;47.226;39.702;2023-05-12T05:59:48;101182.16;;;13.71;52.42
52651;BME280;38537;47.226;39.702;2023-05-12T06:02:16;101067.25;;;13.01;53.04
52651;BME280;38537;47.226;39.702;2023-05-12T06:04:54;101062.09;;;13.09;52.53
52651;BME280;38537;47.226;39.702;2023-05-12T06:07:22;101121.00;;;13.55;53.10
52651;BME280;38537;47.226;39.702;2023-05-12T06:09:51;101088.03;;;13.33;50.49
52651;BME280;38537;47.226;39.702;2023-05-12T06:15:54;101172.94;;;13.98;50.69
52651;BME280;38537;47.226;39.702;2023-05-12T06:18:22;101169.06;;;14.08;50.88
52651;BME280;38537;47.226;39.702;2023-05-12T06:20:51;101162.31;;;14.09;50.61
52651;BME280;38537;47.226;39.702;2023-05-12T06:23:19;101186.16;;;14.25;50.84
52651;BME280;38537;47.226;39.702;2023-05-12T06:25:47;101180.53;;;14.25;50.16
52651;BME280;38537;47.226;39.702;2023-05-12T06:28:15;101165.75;;;14.20;50.65
52651;BME280;38537;47.226;39.702;2023-05-12T06:30:45;101146.50;;;14.13;50.18
52651;BME280;38537;47.226;39.702;2023-05-12T06:33:27;101162.00;;;14.24;50.29
52651;BME280;38537;47.226;39.702;2023-05-12T06:35:54;101205.19;;;14.56;49.43
52651;BME280;38537;47.226;39.702;2023-05-12T06:38:22;101118.50;;;14.08;48.80
52651;BME280;38537;47.226;39.702;2023-05-12T06:40:49;101136.19;;;14.22;48.04
52651;BME280;38537;47.226;39.702;2023-05-12T06:43:17;101118.31;;;14.18;47.62
52651;BME280;38537;47.226;39.702;2023-05-12T06:45:46;101139.91;;;14.31;47.75
52651;BME280;38537;47.226;39.702;2023-05-12T06:48:14;101075.16;;;14.00;47.70
52651;BME280;38537;47.226;39.702;2023-05-12T06:50:42;101126.91;;;14.35;47.60
52651;BME280;38537;47.226;39.702;2023-05-12T06:53:15;101159.88;;;14.57;47.68
52651;BME280;38537;47.226;39.702;2023-05-12T06:55:58;101147.81;;;14.57;46.50
52651;BME280;38537;47.226;39.702;2023-05-12T06:58:26;101112.84;;;14.35;45.82
52651;BME280;38537;47.226;39.702;2023-05-12T07:00:54;101127.66;;;14.41;45.68
52651;BME280;38537;47.226;39.702;2023-05-12T07:03:22;101123.91;;;14.46;46.69
52651;BME280;38537;47.226;39.702;2023-05-12T07:05:53;101193.66;;;14.93;46.52
52651;BME280;38537;47.226;39.702;2023-05-12T07:08:26;101161.28;;;14.82;45.78
52651;BME280;38537;47.226;39.702;2023-05-12T07:10:56;101175.59;;;14.94;45.64
52651;BME280;38537;47.226;39.702;2023-05-12T07:13:26;101206.91;;;15.15;45.14
52651;BME280;38537;47.226;39.702;2023-05-12T07:15:53;101162.38;;;14.95;45.39
52651;BME280;38537;47.226;39.702;2023-05-12T07:18:21;101100.03;;;14.57;45.09
52651;BME280;38537;47.226;39.702;2023-05-12T07:20:49;101088.06;;;14.51;45.67
52651;BME280;38537;47.226;39.702;2023-05-12T07:23:16;101070.00;;;14.44;45.33
52651;BME280;38537;47.226;39.702;2023-05-12T07:25:44;101179.25;;;15.17;45.42
52651;BME280;38537;47.226;39.702;2023-05-12T07:28:12;101144.53;;;14.99;45.01
52651;BME280;38537;47.226;39.702;2023-05-12T07:30:45;101174.09;;;15.11;44.20
52651;BME280;38537;47.226;39.702;2023-05-12T07:33:13;101201.72;;;15.31;44.41
52651;BME280;38537;47.226;39.702;2023-05-12T07:35:41;101187.16;;;15.29;44.94
52651;BME280;38537;47.226;39.702;2023-05-12T07:38:08;101195.63;;;15.37;45.05
52651;BME280;38537;47.226;39.702;2023-05-12T07:40:35;101185.72;;;15.40;45.57
52651;BME280;38537;47.226;39.702;2023-05-12T07:43:02;101169.31;;;15.33;45.50
52651;BME280;38537;47.226;39.702;2023-05-12T07:45:31;101203.25;;;15.59;44.61
52651;BME280;38537;47.226;39.702;2023-05-12T07:47:59;101176.38;;;15.53;44.36
52651;BME280;38537;47.226;39.702;2023-05-12T07:50:26;101180.09;;;15.62;44.79
52651;BME280;38537;47.226;39.702;2023-05-12T07:52:54;101183.09;;;15.66;44.34
52651;BME280;38537;47.226;39.702;2023-05-12T07:55:21;101169.09;;;15.52;43.11
52651;BME280;38537;47.226;39.702;2023-05-12T07:57:49;101176.13;;;15.63;43.11
52651;BME280;38537;47.226;39.702;2023-05-12T08:00:17;101157.31;;;15.50;43.02
52651;BME280;38537;47.226;39.702;2023-05-12T08:02:45;101200.25;;;15.78;42.77
52651;BME280;38537;47.226;39.702;2023-05-12T08:05:13;101162.56;;;15.65;43.43
52651;BME280;38537;47.226;39.702;2023-05-12T08:07:41;101167.63;;;15.77;42.94
52651;BME280;38537;47.226;39.702;2023-05-12T08:10:10;101168.78;;;15.85;43.31
52651;BME280;38537;47.226;39.702;2023-05-12T08:12:40;101172.50;;;15.94;43.53
52651;BME280;38537;47.226;39.702;2023-05-12T08:15:08;101146.25;;;15.85;42.65
52651;BME280;38537;47.226;39.702;2023-05-12T08:17:36;101181.59;;;15.91;41.79
52651;BME280;38537;47.226;39.702;2023-05-12T08:20:04;101161.78;;;15.73;41.74
52651;BME280;38537;47.226;39.702;2023-05-12T08:22:35;101160.16;;;15.81;42.24
52651;BME280;38537;47.226;39.702;2023-05-12T08:25:02;101171.91;;;15.74;41.53
52651;BME280;38537;47.226;39.702;2023-05-12T08:27:32;101160.00;;;15.86;42.12
52651;BME280;38537;47.226;39.702;2023-05-12T08:29:59;101154.91;;;15.88;42.58
52651;BME280;38537;47.226;39.702;2023-05-12T08:32:33;101149.50;;;16.00;43.78
52651;BME280;38537;47.226;39.702;2023-05-12T08:35:02;101151.16;;;16.10;44.18
52651;BME280;38537;47.226;39.702;2023-05-12T08:37:30;101147.56;;;16.18;43.08
52651;BME280;38537;47.226;39.702;2023-05-12T08:40:01;101163.34;;;16.36;43.68
52651;BME280;38537;47.226;39.702;2023-05-12T08:45:10;101172.50;;;16.51;41.66
52651;BME280;38537;47.226;39.702;2023-05-12T08:47:37;101167.38;;;16.44;40.91
52651;BME280;38537;47.226;39.702;2023-05-12T08:50:06;101155.19;;;16.26;40.74
52651;BME280;38537;47.226;39.702;2023-05-12T08:52:35;101164.03;;;16.42;40.78
52651;BME280;38537;47.226;39.702;2023-05-12T08:55:03;101159.72;;;16.44;42.16
52651;BME280;38537;47.226;39.702;2023-05-12T08:57:32;101165.72;;;16.60;42.40
52651;BME280;38537;47.226;39.702;2023-05-12T09:00:06;101158.41;;;16.42;40.31
52651;BME280;38537;47.226;39.702;2023-05-12T09:02:36;101140.59;;;16.24;40.58
52651;BME280;38537;47.226;39.702;2023-05-12T09:05:20;101163.50;;;16.31;40.28
52651;BME280;38537;47.226;39.702;2023-05-12T09:07:50;101159.84;;;16.22;40.24
52651;BME280;38537;47.226;39.702;2023-05-12T09:10:20;101170.47;;;16.34;40.96
52651;BME280;38537;47.226;39.702;2023-05-12T09:13:06;101156.72;;;16.41;41.32
52651;BME280;38537;47.226;39.702;2023-05-12T09:15:41;101166.34;;;16.49;40.94
52651;BME280;38537;47.226;39.702;2023-05-12T09:18:10;101140.78;;;16.28;40.42
52651;BME280;38537;47.226;39.702;2023-05-12T09:20:39;101164.03;;;16.42;40.64
52651;BME280;38537;47.226;39.702;2023-05-12T09:23:12;101139.00;;;16.40;41.11
52651;BME280;38537;47.226;39.702;2023-05-12T09:25:45;101151.94;;;16.59;40.68
52651;BME280;38537;47.226;39.702;2023-05-12T09:28:14;101126.56;;;16.50;39.73
52651;BME280;38537;47.226;39.702;2023-05-12T09:30:42;101155.16;;;16.66;39.94
52651;BME280;38537;47.226;39.702;2023-05-12T09:33:12;101111.31;;;16.42;39.77
52651;BME280;38537;47.226;39.702;2023-05-12T09:35:41;101115.78;;;16.43;40.21
52651;BME280;38537;47.226;39.702;2023-05-12T09:38:11;101122.09;;;16.58;39.79
52651;BME280;38537;47.226;39.702;2023-05-12T09:40:41;101127.44;;;16.68;39.46
52651;BME280;38537;47.226;39.702;2023-05-12T09:43:09;101149.84;;;16.82;37.64
52651;BME280;38537;47.226;39.702;2023-05-12T09:45:41;101118.81;;;16.73;38.07
52651;BME280;38537;47.226;39.702;2023-05-12T09:48:11;101118.50;;;16.66;37.86
52651;BME280;38537;47.226;39.702;2023-05-12T09:50:46;101141.38;;;16.82;37.64
52651;BME280;38537;47.226;39.702;2023-05-12T09:53:15;101147.34;;;16.97;38.05
52651;BME280;38537;47.226;39.702;2023-05-12T09:55:45;101120.81;;;16.81;38.51
52651;BME280;38537;47.226;39.702;2023-05-12T09:58:18;101127.75;;;16.92;37.26
52651;BME280;38537;47.226;39.702;2023-05-12T10:00:46;101162.63;;;17.05;37.81
52651;BME280;38537;47.226;39.702;2023-05-12T10:03:17;101133.41;;;17.09;37.37
52651;BME280;38537;47.226;39.702;2023-05-12T10:05:52;101125.75;;;17.19;37.44
52651;BME280;38537;47.226;39.702;2023-05-12T10:08:40;101115.78;;;17.12;37.48
52651;BME280;38537;47.226;39.702;2023-05-12T10:11:09;101120.94;;;17.19;37.85
52651;BME280;38537;47.226;39.702;2023-05-12T10:13:38;101132.03;;;17.41;38.28
52651;BME280;38537;47.226;39.702;2023-05-12T10:16:06;101134.03;;;17.41;38.74
52651;BME280;38537;47.226;39.702;2023-05-12T10:18:35;101127.88;;;17.39;38.49
52651;BME280;38537;47.226;39.702;2023-05-12T10:21:04;101153.44;;;17.34;36.77
52651;BME280;38537;47.226;39.702;2023-05-12T10:23:34;101132.59;;;17.09;36.92
52651;BME280;38537;47.226;39.702;2023-05-12T10:26:06;101112.19;;;16.86;36.96
52651;BME280;38537;47.226;39.702;2023-05-12T10:28:34;101144.38;;;17.02;36.96
52651;BME280;38537;47.226;39.702;2023-05-12T10:31:05;101127.09;;;16.95;37.16
52651;BME280;38537;47.226;39.702;2023-05-12T10:33:36;101130.94;;;17.08;37.33
52651;BME280;38537;47.226;39.702;2023-05-12T10:36:04;101126.41;;;17.16;37.77
52651;BME280;38537;47.226;39.702;2023-05-12T10:38:35;101125.59;;;17.24;37.10
52651;BME280;38537;47.226;39.702;2023-05-12T10:41:06;101098.38;;;17.19;37.26
52651;BME280;38537;47.226;39.702;2023-05-12T10:43:42;101126.03;;;17.43;36.80
52651;BME280;38537;47.226;39.702;2023-05-12T10:46:19;101113.44;;;17.40;37.09
52651;BME280;38537;47.226;39.702;2023-05-12T10:51:27;101115.09;;;17.33;36.02
52651;BME280;38537;47.226;39.702;2023-05-12T10:54:03;101114.97;;;17.21;35.34
52651;BME280;38537;47.226;39.702;2023-05-12T10:59:17;101114.97;;;17.29;35.56
52651;BME280;38537;47.226;39.702;2023-05-12T11:07:18;101083.41;;;17.27;36.70
52651;BME280;38537;47.226;39.702;2023-05-12T11:09:46;101103.94;;;17.54;36.83
52651;BME280;38537;47.226;39.702;2023-05-12T11:12:27;101111.22;;;17.55;35.80
52651;BME280;38537;47.226;39.702;2023-05-12T11:14:55;101091.81;;;17.53;35.92
52651;BME280;38537;47.226;39.702;2023-05-12T11:17:22;101101.91;;;17.63;35.45
52651;BME280;38537;47.226;39.702;2023-05-12T11:19:49;101116.22;;;17.66;35.09
52651;BME280;38537;47.226;39.702;2023-05-12T11:22:19;101110.56;;;17.66;35.34
52651;BME280;38537;47.226;39.702;2023-05-12T11:24:48;101085.28;;;17.61;35.76
52651;BME280;38537;47.226;39.702;2023-05-12T11:27:18;101131.94;;;17.76;35.64
52651;BME280;38537;47.226;39.702;2023-05-12T11:29:58;101095.44;;;17.71;35.31
52651;BME280;38537;47.226;39.702;2023-05-12T11:32:28;101105.31;;;17.86;35.71
52651;BME280;38537;47.226;39.702;2023-05-12T11:35:09;101096.84;;;17.86;35.05
52651;BME280;38537;47.226;39.702;2023-05-12T11:37:39;101066.59;;;17.86;37.86
52651;BME280;38537;47.226;39.702;2023-05-12T11:40:18;101093.25;;;18.06;36.31
52651;BME280;38537;47.226;39.702;2023-05-12T11:42:49;101104.13;;;17.95;34.89
52651;BME280;38537;47.226;39.702;2023-05-12T11:45:21;101096.69;;;17.82;34.33
52651;BME280;38537;47.226;39.702;2023-05-12T11:47:49;101097.03;;;17.80;34.85
52651;BME280;38537;47.226;39.702;2023-05-12T11:50:23;101096.31;;;17.92;34.32
52651;BME280;38537;47.226;39.702;2023-05-12T11:52:52;101085.19;;;17.96;35.18
52651;BME280;38537;47.226;39.702;2023-05-12T11:55:22;101083.94;;;18.05;34.87
52651;BME280;38537;47.226;39.702;2023-05-12T11:58:02;101085.22;;;18.17;35.41
52651;BME280;38537;47.226;39.702;2023-05-12T12:00:33;101046.56;;;18.00;35.86
52651;BME280;38537;47.226;39.702;2023-05-12T12:03:10;101056.47;;;18.14;35.75
52651;BME280;38537;47.226;39.702;2023-05-12T12:05:40;101077.31;;;18.31;35.93
52651;BME280;38537;47.226;39.702;2023-05-12T12:08:13;101070.97;;;18.34;36.18
52651;BME280;38537;47.226;39.702;2023-05-12T12:10:44;101051.84;;;18.31;35.97
52651;BME280;38537;47.226;39.702;2023-05-12T12:13:19;101075.38;;;18.43;34.52
52651;BME280;38537;47.226;39.702;2023-05-12T12:15:48;101058.00;;;18.33;34.94
52651;BME280;38537;47.226;39.702;2023-05-12T12:18:15;101057.66;;;18.34;35.43
52651;BME280;38537;47.226;39.702;2023-05-12T12:20:43;101072.53;;;18.43;34.60
52651;BME280;38537;47.226;39.702;2023-05-12T12:23:15;101076.34;;;18.47;34.88
52651;BME280;38537;47.226;39.702;2023-05-12T12:25:42;101070.69;;;18.47;35.26
52651;BME280;38537;47.226;39.702;2023-05-12T12:28:10;101068.19;;;18.46;35.06
52651;BME280;38537;47.226;39.702;2023-05-12T12:30:38;101056.97;;;18.37;35.27
52651;BME280;38537;47.226;39.702;2023-05-12T12:33:05;101056.75;;;18.42;34.80
52651;BME280;38537;47.226;39.702;2023-05-12T12:35:33;101073.94;;;18.58;35.01
52651;BME280;38537;47.226;39.702;2023-05-12T12:38:00;101082.59;;;18.62;35.28
52651;BME280;38537;47.226;39.702;2023-05-12T12:40:29;101051.38;;;18.49;36.25
52651;BME280;38537;47.226;39.702;2023-05-12T12:42:56;101045.50;;;18.55;35.14
52651;BME280;38537;47.226;39.702;2023-05-12T12:45:24;101081.69;;;18.70;34.97
52651;BME280;38537;47.226;39.702;2023-05-12T12:47:51;101054.97;;;18.59;34.98
52651;BME280;38537;47.226;39.702;2023-05-12T12:50:21;101072.22;;;18.66;34.95
52651;BME280;38537;47.226;39.702;2023-05-12T12:52:51;101049.56;;;18.45;35.02
52651;BME280;38537;47.226;39.702;2023-05-12T12:55:19;101055.22;;;18.45;35.10
52651;BME280;38537;47.226;39.702;2023-05-12T12:57:46;101077.13;;;18.57;35.30
52651;BME280;38537;47.226;39.702;2023-05-12T13:00:15;101052.47;;;18.36;35.49
52651;BME280;38537;47.226;39.702;2023-05-12T13:02:43;101073.84;;;18.46;35.51
52651;BME280;38537;47.226;39.702;2023-05-12T13:05:11;101077.59;;;18.38;35.26
52651;BME280;38537;47.226;39.702;2023-05-12T13:07:38;101073.16;;;18.28;35.17
52651;BME280;38537;47.226;39.702;2023-05-12T13:10:07;101059.06;;;18.20;35.22
52651;BME280;38537;47.226;39.702;2023-05-12T13:12:39;101059.22;;;18.23;35.54